sensor_id;sensor_type;location;lat;lon;timestamp;pressure;altitude;pressure_sealevel;temperature;humidity
80308;BME280;69616;43.522;1.348;2023-09-08T00:00:40;99930.53;;;23.72;42.86
80308;BME280;69616;43.522;1.348;2023-09-08T00:03:05;99930.00;;;23.67;42.76
80308;BME280;69616;43.522;1.348;2023-09-08T00:05:31;99932.97;;;23.62;42.92
80308;BME280;69616;43.522;1.348;2023-09-08T00:07:56;99930.47;;;23.59;43.23
80308;BME280;69616;43.522;1.348;2023-09-08T00:10:22;99928.09;;;23.55;43.00
80308;BME280;69616;43.522;1.348;2023-09-08T00:12:47;99925.78;;;23.48;43.55
80308;BME280;69616;43.522;1.348;2023-09-08T00:15:12;99919.84;;;23.43;43.39
80308;BME280;69616;43.522;1.348;2023-09-08T00:17:38;99918.41;;;23.37;43.68
80308;BME280;69616;43.522;1.348;2023-09-08T00:20:05;99913.34;;;23.33;43.59
80308;BME280;69616;43.522;1.348;2023-09-08T00:22:34;99918.91;;;23.30;43.88
80308;BME280;69616;43.522;1.348;2023-09-08T00:24:59;99923.66;;;23.25;44.04
80308;BME280;69616;43.522;1.348;2023-09-08T00:27:24;99921.28;;;23.20;44.14
80308;BME280;69616;43.522;1.348;2023-09-08T00:29:50;99925.97;;;23.16;44.18
80308;BME280;69616;43.522;1.348;2023-09-08T00:32:15;99924.31;;;23.14;44.54
80308;BME280;69616;43.522;1.348;2023-09-08T00:34:41;99913.97;;;23.07;44.56
80308;BME280;69616;43.522;1.348;2023-09-08T00:37:06;99917.81;;;23.03;44.55
80308;BME280;69616;43.522;1.348;2023-09-08T00:39:35;99916.34;;;22.98;44.73
80308;BME280;69616;43.522;1.348;2023-09-08T00:42:01;99916.06;;;22.88;44.99
80308;BME280;69616;43.522;1.348;2023-09-08T00:44:26;99910.13;;;22.83;45.07
80308;BME280;69616;43.522;1.348;2023-09-08T00:46:51;99912.16;;;22.79;45.18
80308;BME280;69616;43.522;1.348;2023-09-08T00:49:17;99912.31;;;22.76;45.27
80308;BME280;69616;43.522;1.348;2023-09-08T00:51:42;99908.00;;;22.73;45.41
80308;BME280;69616;43.522;1.348;2023-09-08T00:54:08;99914.59;;;22.68;45.69
80308;BME280;69616;43.522;1.348;2023-09-08T00:56:37;99913.25;;;22.60;45.89
80308;BME280;69616;43.522;1.348;2023-09-08T00:59:04;99920.72;;;22.55;45.82
80308;BME280;69616;43.522;1.348;2023-09-08T01:01:29;99916.47;;;22.51;45.80
80308;BME280;69616;43.522;1.348;2023-09-08T01:03:55;99913.97;;;22.48;46.04
80308;BME280;69616;43.522;1.348;2023-09-08T01:06:21;99908.75;;;22.45;46.27
80308;BME280;69616;43.522;1.348;2023-09-08T01:08:46;99913.16;;;22.31;46.80
80308;BME280;69616;43.522;1.348;2023-09-08T01:11:12;99911.94;;;22.21;46.80
80308;BME280;69616;43.522;1.348;2023-09-08T01:13:38;99908.66;;;22.16;47.10
80308;BME280;69616;43.522;1.348;2023-09-08T01:16:03;99913.25;;;22.14;46.83
80308;BME280;69616;43.522;1.348;2023-09-08T01:18:29;99910.75;;;22.11;47.05
80308;BME280;69616;43.522;1.348;2023-09-08T01:21:13;99913.53;;;22.09;47.48
80308;BME280;69616;43.522;1.348;2023-09-08T01:26:36;99911.28;;;22.01;47.73
80308;BME280;69616;43.522;1.348;2023-09-08T01:29:02;99909.53;;;22.00;47.52
80308;BME280;69616;43.522;1.348;2023-09-08T01:31:30;99907.81;;;21.99;47.37
80308;BME280;69616;43.522;1.348;2023-09-08T01:33:56;99909.72;;;21.97;47.85
80308;BME280;69616;43.522;1.348;2023-09-08T01:36:21;99910.69;;;21.96;47.86
80308;BME280;69616;43.522;1.348;2023-09-08T01:38:47;99909.91;;;21.94;47.84
80308;BME280;69616;43.522;1.348;2023-09-08T01:41:12;99908.19;;;21.93;47.90
80308;BME280;69616;43.522;1.348;2023-09-08T01:43:38;99910.28;;;21.88;48.48
80308;BME280;69616;43.522;1.348;2023-09-08T01:46:03;99903.63;;;21.79;48.47
80308;BME280;69616;43.522;1.348;2023-09-08T01:48:28;99903.88;;;21.74;48.84
80308;BME280;69616;43.522;1.348;2023-09-08T01:50:54;99899.38;;;21.75;48.71
80308;BME280;69616;43.522;1.348;2023-09-08T01:53:19;99894.97;;;21.74;48.41
80308;BME280;69616;43.522;1.348;2023-09-08T01:55:45;99893.41;;;21.70;48.96
80308;BME280;69616;43.522;1.348;2023-09-08T01:58:10;99896.50;;;21.62;49.15
80308;BME280;69616;43.522;1.348;2023-09-08T02:00:36;99897.69;;;21.56;49.24
80308;BME280;69616;43.522;1.348;2023-09-08T02:03:01;99893.53;;;21.50;49.38
80308;BME280;69616;43.522;1.348;2023-09-08T02:05:26;99892.69;;;21.50;49.72
80308;BME280;69616;43.522;1.348;2023-09-08T02:07:52;99894.50;;;21.49;49.67
80308;BME280;69616;43.522;1.348;2023-09-08T02:10:17;99896.31;;;21.49;49.77
80308;BME280;69616;43.522;1.348;2023-09-08T02:12:43;99894.50;;;21.49;49.72
80308;BME280;69616;43.522;1.348;2023-09-08T02:15:08;99892.75;;;21.48;49.96
80308;BME280;69616;43.522;1.348;2023-09-08T02:17:36;99887.41;;;21.48;50.14
80308;BME280;69616;43.522;1.348;2023-09-08T02:20:01;99892.94;;;21.45;50.00
80308;BME280;69616;43.522;1.348;2023-09-08T02:22:28;99893.97;;;21.43;50.04
80308;BME280;69616;43.522;1.348;2023-09-08T02:24:53;99896.22;;;21.34;50.50
80308;BME280;69616;43.522;1.348;2023-09-08T02:27:19;99894.13;;;21.23;50.33
80308;BME280;69616;43.522;1.348;2023-09-08T02:29:44;99894.47;;;21.17;50.94
80308;BME280;69616;43.522;1.348;2023-09-08T02:32:10;99889.44;;;21.11;51.24
80308;BME280;69616;43.522;1.348;2023-09-08T02:34:36;99890.53;;;21.07;51.25
80308;BME280;69616;43.522;1.348;2023-09-08T02:37:04;99889.75;;;21.05;50.92
80308;BME280;69616;43.522;1.348;2023-09-08T02:39:30;99893.47;;;21.02;51.11
80308;BME280;69616;43.522;1.348;2023-09-08T02:41:58;99891.81;;;21.00;51.15
80308;BME280;69616;43.522;1.348;2023-09-08T02:44:24;99891.03;;;20.98;51.45
80308;BME280;69616;43.522;1.348;2023-09-08T02:46:51;99888.38;;;20.98;51.56
80308;BME280;69616;43.522;1.348;2023-09-08T02:49:17;99890.16;;;20.97;51.22
80308;BME280;69616;43.522;1.348;2023-09-08T02:51:42;99893.97;;;20.93;51.28
80308;BME280;69616;43.522;1.348;2023-09-08T02:54:07;99903.03;;;20.90;51.43
80308;BME280;69616;43.522;1.348;2023-09-08T02:56:33;99899.56;;;20.88;52.32
80308;BME280;69616;43.522;1.348;2023-09-08T02:58:58;99905.06;;;20.85;51.94
80308;BME280;69616;43.522;1.348;2023-09-08T03:01:23;99908.00;;;20.81;52.06
80308;BME280;69616;43.522;1.348;2023-09-08T03:03:49;99910.81;;;20.77;51.75
80308;BME280;69616;43.522;1.348;2023-09-08T03:06:19;99909.16;;;20.75;52.23
80308;BME280;69616;43.522;1.348;2023-09-08T03:08:45;99914.66;;;20.72;52.09
80308;BME280;69616;43.522;1.348;2023-09-08T03:11:10;99919.22;;;20.70;52.22
80308;BME280;69616;43.522;1.348;2023-09-08T03:13:35;99918.44;;;20.68;52.48
80308;BME280;69616;43.522;1.348;2023-09-08T03:16:05;99924.75;;;20.67;52.68
80308;BME280;69616;43.522;1.348;2023-09-08T03:18:32;99921.28;;;20.64;52.52
80308;BME280;69616;43.522;1.348;2023-09-08T03:20:58;99918.69;;;20.63;52.54
80308;BME280;69616;43.522;1.348;2023-09-08T03:23:23;99923.25;;;20.61;52.84
80308;BME280;69616;43.522;1.348;2023-09-08T03:25:49;99917.03;;;20.60;52.79
80308;BME280;69616;43.522;1.348;2023-09-08T03:28:15;99913.56;;;20.58;53.00
80308;BME280;69616;43.522;1.348;2023-09-08T03:30:40;99912.78;;;20.56;52.73
80308;BME280;69616;43.522;1.348;2023-09-08T03:33:07;99906.75;;;20.53;53.26
80308;BME280;69616;43.522;1.348;2023-09-08T03:35:32;99914.91;;;20.49;52.85
80308;BME280;69616;43.522;1.348;2023-09-08T03:37:57;99921.28;;;20.47;53.13
80308;BME280;69616;43.522;1.348;2023-09-08T03:40:23;99914.28;;;20.44;52.93
80308;BME280;69616;43.522;1.348;2023-09-08T03:42:49;99922.44;;;20.41;52.93
80308;BME280;69616;43.522;1.348;2023-09-08T03:45:14;99916.38;;;20.37;53.39
80308;BME280;69616;43.522;1.348;2023-09-08T03:47:40;99925.50;;;20.33;53.22
80308;BME280;69616;43.522;1.348;2023-09-08T03:50:06;99925.75;;;20.29;53.92
80308;BME280;69616;43.522;1.348;2023-09-08T03:52:31;99921.47;;;20.25;53.69
80308;BME280;69616;43.522;1.348;2023-09-08T03:54:57;99918.03;;;20.22;54.06
80308;BME280;69616;43.522;1.348;2023-09-08T03:57:22;99922.53;;;20.22;53.83
80308;BME280;69616;43.522;1.348;2023-09-08T03:59:47;99919.06;;;20.20;53.68
80308;BME280;69616;43.522;1.348;2023-09-08T04:02:13;99908.53;;;20.17;53.93
80308;BME280;69616;43.522;1.348;2023-09-08T04:04:38;99914.81;;;20.16;54.27
80308;BME280;69616;43.522;1.348;2023-09-08T04:07:03;99908.69;;;20.14;54.05
80308;BME280;69616;43.522;1.348;2023-09-08T04:09:29;99909.69;;;20.11;54.34
80308;BME280;69616;43.522;1.348;2023-09-08T04:11:54;99908.03;;;20.08;54.23
80308;BME280;69616;43.522;1.348;2023-09-08T04:14:20;99914.25;;;20.09;54.03
80308;BME280;69616;43.522;1.348;2023-09-08T04:16:46;99914.31;;;20.07;54.11
80308;BME280;69616;43.522;1.348;2023-09-08T04:19:11;99909.13;;;20.04;54.23
80308;BME280;69616;43.522;1.348;2023-09-08T04:21:36;99910.22;;;20.00;54.20
80308;BME280;69616;43.522;1.348;2023-09-08T04:24:02;99905.97;;;19.96;54.45
80308;BME280;69616;43.522;1.348;2023-09-08T04:26:29;99905.25;;;19.92;54.66
80308;BME280;69616;43.522;1.348;2023-09-08T04:28:54;99902.75;;;19.88;54.44
80308;BME280;69616;43.522;1.348;2023-09-08T04:31:20;99897.66;;;19.83;54.98
80308;BME280;69616;43.522;1.348;2023-09-08T04:33:47;99890.66;;;19.80;54.87
80308;BME280;69616;43.522;1.348;2023-09-08T04:36:12;99898.81;;;19.77;54.98
80308;BME280;69616;43.522;1.348;2023-09-08T04:38:38;99899.03;;;19.73;55.22
80308;BME280;69616;43.522;1.348;2023-09-08T04:41:03;99906.56;;;19.64;55.12
80308;BME280;69616;43.522;1.348;2023-09-08T04:43:29;99905.97;;;19.58;55.33
80308;BME280;69616;43.522;1.348;2023-09-08T04:45:54;99911.47;;;19.55;55.37
80308;BME280;69616;43.522;1.348;2023-09-08T04:48:19;99915.84;;;19.56;55.24
80308;BME280;69616;43.522;1.348;2023-09-08T04:50:45;99918.47;;;19.57;55.34
80308;BME280;69616;43.522;1.348;2023-09-08T04:53:10;99920.34;;;19.55;55.73
80308;BME280;69616;43.522;1.348;2023-09-08T04:55:35;99918.69;;;19.53;55.81
80308;BME280;69616;43.522;1.348;2023-09-08T04:58:01;99919.53;;;19.53;55.63
80308;BME280;69616;43.522;1.348;2023-09-08T05:00:26;99919.63;;;19.51;55.78
80308;BME280;69616;43.522;1.348;2023-09-08T05:02:51;99911.59;;;19.51;55.73
80308;BME280;69616;43.522;1.348;2023-09-08T05:05:17;99917.88;;;19.50;56.11
80308;BME280;69616;43.522;1.348;2023-09-08T05:07:42;99924.16;;;19.49;55.76
80308;BME280;69616;43.522;1.348;2023-09-08T05:10:08;99928.56;;;19.50;55.89
80308;BME280;69616;43.522;1.348;2023-09-08T05:12:34;99918.81;;;19.49;56.10
80308;BME280;69616;43.522;1.348;2023-09-08T05:14:59;99918.88;;;19.48;55.81
80308;BME280;69616;43.522;1.348;2023-09-08T05:17:31;99920.72;;;19.47;56.08
80308;BME280;69616;43.522;1.348;2023-09-08T05:19:57;99918.88;;;19.48;56.46
80308;BME280;69616;43.522;1.348;2023-09-08T05:22:22;99928.72;;;19.47;56.34
80308;BME280;69616;43.522;1.348;2023-09-08T05:24:47;99932.31;;;19.46;56.19
80308;BME280;69616;43.522;1.348;2023-09-08T05:27:13;99930.66;;;19.44;56.32
80308;BME280;69616;43.522;1.348;2023-09-08T05:29:38;99934.25;;;19.43;56.17
80308;BME280;69616;43.522;1.348;2023-09-08T05:32:03;99943.16;;;19.43;56.53
80308;BME280;69616;43.522;1.348;2023-09-08T05:34:29;99943.28;;;19.40;56.52
80308;BME280;69616;43.522;1.348;2023-09-08T05:36:54;99944.22;;;19.39;56.59
80308;BME280;69616;43.522;1.348;2023-09-08T05:39:20;99944.22;;;19.39;56.84
80308;BME280;69616;43.522;1.348;2023-09-08T05:41:45;99948.50;;;19.43;56.68
80308;BME280;69616;43.522;1.348;2023-09-08T05:44:11;99950.00;;;19.49;56.75
80308;BME280;69616;43.522;1.348;2023-09-08T05:46:36;99946.22;;;19.53;56.53
80308;BME280;69616;43.522;1.348;2023-09-08T05:49:02;99945.88;;;19.61;56.45
80308;BME280;69616;43.522;1.348;2023-09-08T05:51:27;99943.06;;;19.64;56.29
80308;BME280;69616;43.522;1.348;2023-09-08T05:53:52;99953.63;;;19.67;56.43
80308;BME280;69616;43.522;1.348;2023-09-08T05:56:18;99948.06;;;19.72;56.14
80308;BME280;69616;43.522;1.348;2023-09-08T05:58:44;99959.63;;;19.72;56.59
80308;BME280;69616;43.522;1.348;2023-09-08T06:01:10;99957.88;;;19.71;56.14
80308;BME280;69616;43.522;1.348;2023-09-08T06:03:35;99963.00;;;19.76;56.53
80308;BME280;69616;43.522;1.348;2023-09-08T06:06:01;99971.44;;;19.86;56.36
80308;BME280;69616;43.522;1.348;2023-09-08T06:08:27;99969.97;;;19.99;55.67
80308;BME280;69616;43.522;1.348;2023-09-08T06:10:52;99957.59;;;20.16;55.33
80308;BME280;69616;43.522;1.348;2023-09-08T06:13:17;99963.66;;;20.37;54.86
80308;BME280;69616;43.522;1.348;2023-09-08T06:15:43;99964.09;;;20.64;53.88
80308;BME280;69616;43.522;1.348;2023-09-08T06:18:08;99961.13;;;20.88;54.18
80308;BME280;69616;43.522;1.348;2023-09-08T06:20:34;99964.19;;;20.98;53.37
80308;BME280;69616;43.522;1.348;2023-09-08T06:22:59;99965.38;;;21.10;53.15
80308;BME280;69616;43.522;1.348;2023-09-08T06:25:24;99964.53;;;21.26;52.92
80308;BME280;69616;43.522;1.348;2023-09-08T06:27:50;99971.56;;;21.44;52.70
80308;BME280;69616;43.522;1.348;2023-09-08T06:30:15;99968.72;;;21.65;52.09
80308;BME280;69616;43.522;1.348;2023-09-08T06:32:42;99970.88;;;21.74;52.08
80308;BME280;69616;43.522;1.348;2023-09-08T06:35:08;99974.91;;;21.82;51.55
80308;BME280;69616;43.522;1.348;2023-09-08T06:37:37;99968.63;;;21.83;52.17
80308;BME280;69616;43.522;1.348;2023-09-08T06:40:04;99963.53;;;21.94;51.50
80308;BME280;69616;43.522;1.348;2023-09-08T06:42:29;99953.84;;;22.07;51.12
80308;BME280;69616;43.522;1.348;2023-09-08T06:44:55;99952.72;;;22.12;51.27
80308;BME280;69616;43.522;1.348;2023-09-08T06:47:20;99961.75;;;22.25;50.85
80308;BME280;69616;43.522;1.348;2023-09-08T06:49:46;99961.84;;;22.40;50.72
80308;BME280;69616;43.522;1.348;2023-09-08T06:52:11;99963.56;;;22.57;50.22
80308;BME280;69616;43.522;1.348;2023-09-08T06:54:37;99959.09;;;22.72;49.87
80308;BME280;69616;43.522;1.348;2023-09-08T06:57:02;99962.78;;;22.85;49.83
80308;BME280;69616;43.522;1.348;2023-09-08T06:59:28;99962.13;;;22.96;49.23
80308;BME280;69616;43.522;1.348;2023-09-08T07:01:53;99960.59;;;23.06;49.31
80308;BME280;69616;43.522;1.348;2023-09-08T07:04:19;99968.75;;;23.19;48.84
80308;BME280;69616;43.522;1.348;2023-09-08T07:06:44;99968.03;;;23.32;48.93
80308;BME280;69616;43.522;1.348;2023-09-08T07:09:11;99968.00;;;23.46;48.56
80308;BME280;69616;43.522;1.348;2023-09-08T07:11:36;99970.72;;;23.61;48.38
80308;BME280;69616;43.522;1.348;2023-09-08T07:14:02;99974.53;;;23.71;48.16
80308;BME280;69616;43.522;1.348;2023-09-08T07:16:28;99971.16;;;23.82;47.90
80308;BME280;69616;43.522;1.348;2023-09-08T07:18:53;99979.28;;;23.95;47.63
80308;BME280;69616;43.522;1.348;2023-09-08T07:21:18;99977.78;;;24.05;47.22
80308;BME280;69616;43.522;1.348;2023-09-08T07:23:44;99977.16;;;24.15;47.55
80308;BME280;69616;43.522;1.348;2023-09-08T07:26:09;99979.34;;;24.22;47.34
80308;BME280;69616;43.522;1.348;2023-09-08T07:28:34;99975.94;;;24.33;46.99
80308;BME280;69616;43.522;1.348;2023-09-08T07:31:04;99983.38;;;24.43;46.35
80308;BME280;69616;43.522;1.348;2023-09-08T07:33:30;99978.91;;;24.56;46.48
80308;BME280;69616;43.522;1.348;2023-09-08T07:35:55;99980.59;;;24.72;46.45
80308;BME280;69616;43.522;1.348;2023-09-08T07:38:21;99983.22;;;24.86;46.14
80308;BME280;69616;43.522;1.348;2023-09-08T07:40:46;99974.16;;;25.00;45.86
80308;BME280;69616;43.522;1.348;2023-09-08T07:43:11;99963.94;;;25.18;45.79
80308;BME280;69616;43.522;1.348;2023-09-08T07:45:37;99965.47;;;25.35;45.26
80308;BME280;69616;43.522;1.348;2023-09-08T07:48:02;99974.09;;;25.54;43.98
80308;BME280;69616;43.522;1.348;2023-09-08T07:50:28;99974.16;;;25.65;43.94
80308;BME280;69616;43.522;1.348;2023-09-08T07:52:55;99982.22;;;25.78;42.91
80308;BME280;69616;43.522;1.348;2023-09-08T07:55:22;99980.91;;;25.84;42.84
80308;BME280;69616;43.522;1.348;2023-09-08T07:57:48;99983.38;;;25.87;42.12
80308;BME280;69616;43.522;1.348;2023-09-08T08:00:14;99980.38;;;25.91;42.75
80308;BME280;69616;43.522;1.348;2023-09-08T08:02:45;99987.66;;;26.02;42.53
80308;BME280;69616;43.522;1.348;2023-09-08T08:05:10;99978.59;;;26.16;41.53
80308;BME280;69616;43.522;1.348;2023-09-08T08:07:36;99991.28;;;26.27;40.50
80308;BME280;69616;43.522;1.348;2023-09-08T08:10:01;99989.59;;;26.37;40.23
80308;BME280;69616;43.522;1.348;2023-09-08T08:12:27;99981.31;;;26.52;40.32
80308;BME280;69616;43.522;1.348;2023-09-08T08:14:52;99985.84;;;26.76;40.43
80308;BME280;69616;43.522;1.348;2023-09-08T08:17:18;99982.25;;;27.00;39.55
80308;BME280;69616;43.522;1.348;2023-09-08T08:19:45;99984.09;;;27.22;39.48
80308;BME280;69616;43.522;1.348;2023-09-08T08:22:10;99982.56;;;27.42;38.89
80308;BME280;69616;43.522;1.348;2023-09-08T08:24:36;99985.16;;;27.55;39.14
80308;BME280;69616;43.522;1.348;2023-09-08T08:27:01;99980.34;;;27.70;38.30
80308;BME280;69616;43.522;1.348;2023-09-08T08:29:28;99984.53;;;27.74;38.24
80308;BME280;69616;43.522;1.348;2023-09-08T08:31:53;99975.44;;;27.75;37.61
80308;BME280;69616;43.522;1.348;2023-09-08T08:34:19;99974.06;;;27.70;38.20
80308;BME280;69616;43.522;1.348;2023-09-08T08:36:44;99978.38;;;27.72;38.06
80308;BME280;69616;43.522;1.348;2023-09-08T08:39:09;99980.34;;;27.70;37.88
80308;BME280;69616;43.522;1.348;2023-09-08T08:41:35;99986.03;;;27.67;37.97
80308;BME280;69616;43.522;1.348;2023-09-08T08:44:06;99982.44;;;27.67;37.50
80308;BME280;69616;43.522;1.348;2023-09-08T08:46:31;99979.00;;;27.64;37.79
80308;BME280;69616;43.522;1.348;2023-09-08T08:49:01;99978.88;;;27.77;38.20
80308;BME280;69616;43.522;1.348;2023-09-08T08:51:28;99982.56;;;27.88;37.46
80308;BME280;69616;43.522;1.348;2023-09-08T08:53:55;99975.50;;;27.97;37.03
80308;BME280;69616;43.522;1.348;2023-09-08T08:56:20;99974.03;;;28.04;36.66
80308;BME280;69616;43.522;1.348;2023-09-08T08:58:47;99969.56;;;28.14;36.97
80308;BME280;69616;43.522;1.348;2023-09-08T09:01:16;99971.56;;;28.24;35.91
80308;BME280;69616;43.522;1.348;2023-09-08T09:03:42;99977.28;;;28.30;36.14
80308;BME280;69616;43.522;1.348;2023-09-08T09:06:10;99970.66;;;28.34;36.13
80308;BME280;69616;43.522;1.348;2023-09-08T09:08:37;99964.00;;;28.39;36.13
80308;BME280;69616;43.522;1.348;2023-09-08T09:11:02;99974.50;;;28.53;36.06
80308;BME280;69616;43.522;1.348;2023-09-08T09:13:27;99965.69;;;28.72;35.77
80308;BME280;69616;43.522;1.348;2023-09-08T09:15:58;99963.09;;;28.92;34.93
80308;BME280;69616;43.522;1.348;2023-09-08T09:18:23;99965.69;;;28.93;35.09
80308;BME280;69616;43.522;1.348;2023-09-08T09:20:55;99958.47;;;29.04;35.07
80308;BME280;69616;43.522;1.348;2023-09-08T09:23:34;99954.53;;;29.08;35.22
80308;BME280;69616;43.522;1.348;2023-09-08T09:26:01;99952.00;;;29.16;34.88
80308;BME280;69616;43.522;1.348;2023-09-08T09:28:29;99956.91;;;29.32;34.84
80308;BME280;69616;43.522;1.348;2023-09-08T09:30:55;99956.44;;;29.48;35.23
80308;BME280;69616;43.522;1.348;2023-09-08T09:33:22;99955.91;;;29.55;34.34
80308;BME280;69616;43.522;1.348;2023-09-08T09:35:51;99945.94;;;29.65;34.36
80308;BME280;69616;43.522;1.348;2023-09-08T09:38:18;99958.38;;;29.77;33.91
80308;BME280;69616;43.522;1.348;2023-09-08T09:40:47;99956.84;;;29.85;33.85
80308;BME280;69616;43.522;1.348;2023-09-08T09:43:14;99951.16;;;29.88;33.72
80308;BME280;69616;43.522;1.348;2023-09-08T09:45:41;99947.16;;;29.92;33.63
80308;BME280;69616;43.522;1.348;2023-09-08T09:48:08;99944.72;;;29.99;33.59
80308;BME280;69616;43.522;1.348;2023-09-08T09:50:38;99942.63;;;30.02;33.29
80308;BME280;69616;43.522;1.348;2023-09-08T09:53:15;99942.34;;;30.05;33.40
80308;BME280;69616;43.522;1.348;2023-09-08T09:55:42;99940.63;;;30.14;33.52
80308;BME280;69616;43.522;1.348;2023-09-08T09:58:08;99938.91;;;30.23;33.73
80308;BME280;69616;43.522;1.348;2023-09-08T10:00:36;99924.63;;;30.41;32.77
80308;BME280;69616;43.522;1.348;2023-09-08T10:03:04;99943.66;;;30.50;33.06
80308;BME280;69616;43.522;1.348;2023-09-08T10:05:29;99928.34;;;30.59;32.77
80308;BME280;69616;43.522;1.348;2023-09-08T10:07:55;99938.78;;;30.74;32.51
80308;BME280;69616;43.522;1.348;2023-09-08T10:10:21;99931.47;;;30.84;32.40
80308;BME280;69616;43.522;1.348;2023-09-08T10:12:55;99924.84;;;30.97;32.71
80308;BME280;69616;43.522;1.348;2023-09-08T10:15:23;99929.38;;;31.16;32.34
80308;BME280;69616;43.522;1.348;2023-09-08T10:17:56;99928.38;;;31.17;32.09
80308;BME280;69616;43.522;1.348;2023-09-08T10:20:26;99931.09;;;31.17;31.62
80308;BME280;69616;43.522;1.348;2023-09-08T10:22:54;99919.59;;;31.33;31.82
80308;BME280;69616;43.522;1.348;2023-09-08T10:25:24;99910.13;;;31.37;32.02
80308;BME280;69616;43.522;1.348;2023-09-08T10:27:50;99919.81;;;31.49;31.64
80308;BME280;69616;43.522;1.348;2023-09-08T10:30:16;99924.03;;;31.62;32.12
80308;BME280;69616;43.522;1.348;2023-09-08T10:32:42;99922.97;;;31.73;31.46
80308;BME280;69616;43.522;1.348;2023-09-08T10:35:08;99916.50;;;31.84;31.46
80308;BME280;69616;43.522;1.348;2023-09-08T10:37:34;99918.97;;;31.95;30.80
80308;BME280;69616;43.522;1.348;2023-09-08T10:40:23;99910.72;;;31.87;30.44
80308;BME280;69616;43.522;1.348;2023-09-08T10:42:49;99903.75;;;32.02;30.69
80308;BME280;69616;43.522;1.348;2023-09-08T10:45:17;99908.56;;;32.08;30.87
80308;BME280;69616;43.522;1.348;2023-09-08T10:50:18;99909.66;;;32.16;30.92
80308;BME280;69616;43.522;1.348;2023-09-08T10:52:44;99897.84;;;32.25;30.98
80308;BME280;69616;43.522;1.348;2023-09-08T10:55:11;99903.06;;;32.36;30.63
80308;BME280;69616;43.522;1.348;2023-09-08T10:57:37;99895.44;;;32.40;30.13
80308;BME280;69616;43.522;1.348;2023-09-08T11:00:04;99894.75;;;32.38;30.35
80308;BME280;69616;43.522;1.348;2023-09-08T11:02:49;99898.31;;;32.39;30.21
80308;BME280;69616;43.522;1.348;2023-09-08T11:05:16;99888.56;;;32.54;30.63
80308;BME280;69616;43.522;1.348;2023-09-08T11:07:43;99890.28;;;32.55;30.02
80308;BME280;69616;43.522;1.348;2023-09-08T11:10:10;99884.94;;;32.72;30.58
80308;BME280;69616;43.522;1.348;2023-09-08T11:12:36;99878.97;;;32.76;30.13
80308;BME280;69616;43.522;1.348;2023-09-08T11:15:03;99881.59;;;32.86;28.98
80308;BME280;69616;43.522;1.348;2023-09-08T11:17:34;99887.06;;;32.86;29.43
80308;BME280;69616;43.522;1.348;2023-09-08T11:20:01;99886.28;;;32.94;29.94
80308;BME280;69616;43.522;1.348;2023-09-08T11:22:34;99883.41;;;32.96;29.93
80308;BME280;69616;43.522;1.348;2023-09-08T11:25:01;99873.75;;;33.10;29.49
80308;BME280;69616;43.522;1.348;2023-09-08T11:27:30;99873.25;;;33.14;29.79
80308;BME280;69616;43.522;1.348;2023-09-08T11:29:56;99870.06;;;33.27;29.37
80308;BME280;69616;43.522;1.348;2023-09-08T11:32:22;99865.47;;;33.28;29.83
80308;BME280;69616;43.522;1.348;2023-09-08T11:34:48;99868.56;;;33.33;29.83
80308;BME280;69616;43.522;1.348;2023-09-08T11:37:15;99854.09;;;33.41;29.37
80308;BME280;69616;43.522;1.348;2023-09-08T11:39:45;99858.56;;;33.50;29.10
80308;BME280;69616;43.522;1.348;2023-09-08T11:42:12;99850.56;;;33.48;29.02
80308;BME280;69616;43.522;1.348;2023-09-08T11:44:38;99855.72;;;33.60;29.32
80308;BME280;69616;43.522;1.348;2023-09-08T11:47:06;99858.28;;;33.70;28.89
80308;BME280;69616;43.522;1.348;2023-09-08T11:49:39;99857.78;;;33.74;29.22
80308;BME280;69616;43.522;1.348;2023-09-08T11:52:06;99855.09;;;33.91;28.72
80308;BME280;69616;43.522;1.348;2023-09-08T11:54:32;99865.69;;;33.94;28.57
80308;BME280;69616;43.522;1.348;2023-09-08T11:57:03;99856.81;;;33.92;28.73
80308;BME280;69616;43.522;1.348;2023-09-08T11:59:32;99852.75;;;33.96;28.81
80308;BME280;69616;43.522;1.348;2023-09-08T12:01:58;99846.25;;;34.05;28.92
80308;BME280;69616;43.522;1.348;2023-09-08T12:04:23;99848.47;;;34.10;28.60
80308;BME280;69616;43.522;1.348;2023-09-08T12:06:50;99850.53;;;34.25;27.95
80308;BME280;69616;43.522;1.348;2023-09-08T12:09:16;99842.00;;;34.28;28.30
80308;BME280;69616;43.522;1.348;2023-09-08T12:11:42;99845.91;;;34.25;28.67
80308;BME280;69616;43.522;1.348;2023-09-08T12:14:10;99841.28;;;34.17;28.32
80308;BME280;69616;43.522;1.348;2023-09-08T12:16:37;99841.81;;;34.13;28.41
80308;BME280;69616;43.522;1.348;2023-09-08T12:19:02;99838.75;;;34.24;28.29
80308;BME280;69616;43.522;1.348;2023-09-08T12:21:28;99837.38;;;34.28;28.29
80308;BME280;69616;43.522;1.348;2023-09-08T12:23:54;99838.56;;;34.34;28.36
80308;BME280;69616;43.522;1.348;2023-09-08T12:26:20;99832.59;;;34.39;27.73
80308;BME280;69616;43.522;1.348;2023-09-08T12:28:46;99833.75;;;34.44;27.76
80308;BME280;69616;43.522;1.348;2023-09-08T12:31:15;99830.88;;;34.54;27.73
80308;BME280;69616;43.522;1.348;2023-09-08T12:33:46;99820.25;;;34.68;27.92
80308;BME280;69616;43.522;1.348;2023-09-08T12:36:16;99828.41;;;34.76;27.80
80308;BME280;69616;43.522;1.348;2023-09-08T12:38:52;99822.28;;;34.74;26.84
80308;BME280;69616;43.522;1.348;2023-09-08T12:41:19;99815.41;;;34.86;27.46
80308;BME280;69616;43.522;1.348;2023-09-08T12:43:45;99819.44;;;34.99;26.95
80308;BME280;69616;43.522;1.348;2023-09-08T12:46:11;99815.00;;;34.98;26.94
80308;BME280;69616;43.522;1.348;2023-09-08T12:48:37;99813.31;;;34.97;27.12
80308;BME280;69616;43.522;1.348;2023-09-08T12:51:02;99807.31;;;34.93;26.96
80308;BME280;69616;43.522;1.348;2023-09-08T12:53:32;99808.19;;;34.93;27.14
80308;BME280;69616;43.522;1.348;2023-09-08T12:55:58;99805.66;;;35.00;27.18
80308;BME280;69616;43.522;1.348;2023-09-08T12:58:23;99797.56;;;34.99;26.74
80308;BME280;69616;43.522;1.348;2023-09-08T13:00:48;99799.28;;;35.00;26.38